Switzerland, South Carolina
Current Conditions -  °F | °C
As of 11:56 PM on Sunday 21 Dec 2014 (Local Time) from KNBC Reporting Station
Overcast Overcast  
Wind Chill: 48°   Ceiling: 800
Heat Index: 48°   Visibility: 9mi
Dew Point: 46°   Wind: 0mph
Humidity: 93%   Direction: NA
Pressure: 30.1"   Gusts: NA
Location:  32.4773°N, 80.9264°W
Report Text: KNBC 220456Z AUTO 00000KT 9SM OVC008 09/08 A3010 RMK AO2 CIG 005V010 SLP192 T00890078 401000083
Loading
Personal Weather Stations






























Interactive Weather Map New forecast layout! Learn more

10-Day Weather Forecast

Advertisements
Track Severe Weather on mobile